MRK1274 SGAS-SUMU
Flight info
| Callsign | MRK1274 |
|---|---|
| Flight time | 1h 27m |
| Altitude | 36000 |
| Route | UPOVA UM402 VUKAS |
| Aircraft | B738/M-SDE2E3FGHIRWXY/LB1 |
Departure
| Time | 2026-04-26 16:41 |
|---|---|
| Airport | Silvio Pettirossi International Airport (SGAS) |
Arrival
| Time | 2026-04-26 18:08 |
|---|---|
| Airport | Carrasco General Cesáreo L. Berisso International Airport (SUMU) |
| Time | Latitude | Longitude | Altitude | Speed | Heading |
|---|---|---|---|---|---|
| 2026-04-26 15:55 | -25.24393 | -57.51397 | 278 ft | 0 kts | 148° |
| 2026-04-26 16:26 | -25.24383 | -57.51404 | 279 ft | 4 kts | 141° |
| 2026-04-26 16:26 | -25.24370 | -57.51417 | 277 ft | 4 kts | 126° |
| 2026-04-26 16:26 | -25.24356 | -57.51453 | 277 ft | 4 kts | 100° |
| 2026-04-26 16:26 | -25.24352 | -57.51477 | 277 ft | 2 kts | 102° |
| 2026-04-26 16:27 | -25.24347 | -57.51505 | 277 ft | 4 kts | 104° |
| 2026-04-26 16:27 | -25.24340 | -57.51534 | 277 ft | 4 kts | 106° |
| 2026-04-26 16:27 | -25.24332 | -57.51562 | 282 ft | 4 kts | 108° |
| 2026-04-26 16:27 | -25.24323 | -57.51590 | 279 ft | 4 kts | 111° |
| 2026-04-26 16:28 | -25.24312 | -57.51617 | 279 ft | 4 kts | 118° |
| 2026-04-26 16:28 | -25.24297 | -57.51641 | 279 ft | 4 kts | 144° |
| 2026-04-26 16:28 | -25.24282 | -57.51647 | 278 ft | 0 kts | 193° |
| 2026-04-26 16:30 | -25.24302 | -57.51657 | 282 ft | 4 kts | 223° |
| 2026-04-26 16:31 | -25.24308 | -57.51688 | 278 ft | 5 kts | 271° |
| 2026-04-26 16:31 | -25.24299 | -57.51736 | 278 ft | 7 kts | 295° |
| 2026-04-26 16:31 | -25.24254 | -57.51759 | 278 ft | 8 kts | 2° |
| 2026-04-26 16:31 | -25.24191 | -57.51746 | 278 ft | 10 kts | 12° |
| 2026-04-26 16:32 | -25.24116 | -57.51729 | 278 ft | 12 kts | 11° |
| 2026-04-26 16:32 | -25.24062 | -57.51716 | 278 ft | 13 kts | 15° |
| 2026-04-26 16:32 | -25.23944 | -57.51678 | 277 ft | 14 kts | 16° |
| 2026-04-26 16:32 | -25.23850 | -57.51657 | 277 ft | 14 kts | 0° |
| 2026-04-26 16:33 | -25.23758 | -57.51637 | 277 ft | 13 kts | 15° |
| 2026-04-26 16:33 | -25.23672 | -57.51614 | 277 ft | 13 kts | 12° |
| 2026-04-26 16:33 | -25.23586 | -57.51592 | 277 ft | 12 kts | 12° |
| 2026-04-26 16:33 | -25.23503 | -57.51571 | 277 ft | 12 kts | 13° |
| 2026-04-26 16:34 | -25.23421 | -57.51551 | 277 ft | 12 kts | 9° |
| 2026-04-26 16:34 | -25.23340 | -57.51537 | 277 ft | 12 kts | 11° |
| 2026-04-26 16:34 | -25.23263 | -57.51519 | 277 ft | 11 kts | 11° |
| 2026-04-26 16:34 | -25.23189 | -57.51500 | 277 ft | 11 kts | 13° |
| 2026-04-26 16:35 | -25.23116 | -57.51481 | 277 ft | 11 kts | 13° |
| 2026-04-26 16:35 | -25.23045 | -57.51463 | 276 ft | 10 kts | 13° |
| 2026-04-26 16:35 | -25.22976 | -57.51446 | 276 ft | 10 kts | 12° |
| 2026-04-26 16:35 | -25.22909 | -57.51431 | 276 ft | 10 kts | 12° |
| 2026-04-26 16:36 | -25.22844 | -57.51415 | 276 ft | 9 kts | 12° |
| 2026-04-26 16:36 | -25.22781 | -57.51399 | 276 ft | 9 kts | 13° |
| 2026-04-26 16:36 | -25.22719 | -57.51384 | 276 ft | 9 kts | 12° |
| 2026-04-26 16:36 | -25.22659 | -57.51370 | 276 ft | 9 kts | 12° |
| 2026-04-26 16:37 | -25.22609 | -57.51361 | 276 ft | 9 kts | 0° |
| 2026-04-26 16:37 | -25.22554 | -57.51398 | 274 ft | 4 kts | 298° |
| 2026-04-26 16:38 | -25.22544 | -57.51429 | 273 ft | 0 kts | 284° |
| 2026-04-26 16:38 | -25.22536 | -57.51462 | 271 ft | 7 kts | 284° |
| 2026-04-26 16:38 | -25.22534 | -57.51471 | 270 ft | 0 kts | 284° |
| 2026-04-26 16:39 | -25.22532 | -57.51480 | 273 ft | 4 kts | 283° |
| 2026-04-26 16:39 | -25.22533 | -57.51529 | 267 ft | 4 kts | 252° |
| 2026-04-26 16:40 | -25.22542 | -57.51549 | 267 ft | 4 kts | 236° |
| 2026-04-26 16:40 | -25.22572 | -57.51562 | 267 ft | 10 kts | 191° |
| 2026-04-26 16:40 | -25.22885 | -57.51642 | 271 ft | 81 kts | 193° |
| 2026-04-26 16:40 | -25.23652 | -57.51827 | 273 ft | 141 kts | 192° |
| 2026-04-26 16:41 | -25.24735 | -57.52104 | 500 ft | 172 kts | 191° |
| 2026-04-26 16:41 | -25.25904 | -57.52356 | 1320 ft | 168 kts | 189° |
| 2026-04-26 16:41 | -25.27051 | -57.52544 | 2148 ft | 170 kts | 190° |
| 2026-04-26 16:41 | -25.28272 | -57.52891 | 2508 ft | 193 kts | 195° |
| 2026-04-26 16:42 | -25.29675 | -57.53273 | 2771 ft | 218 kts | 195° |
| 2026-04-26 16:42 | -25.31208 | -57.53696 | 2960 ft | 244 kts | 195° |
| 2026-04-26 16:42 | -25.32959 | -57.54126 | 3239 ft | 268 kts | 193° |
| 2026-04-26 16:42 | -25.34805 | -57.54518 | 3938 ft | 273 kts | 186° |
| 2026-04-26 16:43 | -25.36698 | -57.54395 | 4852 ft | 273 kts | 168° |
| 2026-04-26 16:43 | -25.38415 | -57.53429 | 5467 ft | 286 kts | 136° |
| 2026-04-26 16:43 | -25.39753 | -57.51782 | 6167 ft | 290 kts | 135° |
| 2026-04-26 16:43 | -25.41188 | -57.50184 | 6809 ft | 296 kts | 136° |
| 2026-04-26 16:44 | -25.42667 | -57.48553 | 7448 ft | 303 kts | 136° |
| 2026-04-26 16:44 | -25.44159 | -57.46887 | 8138 ft | 306 kts | 138° |
| 2026-04-26 16:44 | -25.45915 | -57.45582 | 8800 ft | 305 kts | 162° |
| 2026-04-26 16:44 | -25.47935 | -57.44876 | 9502 ft | 306 kts | 169° |
| 2026-04-26 16:45 | -25.50005 | -57.44268 | 10152 ft | 310 kts | 170° |
| 2026-04-26 16:45 | -25.52156 | -57.43631 | 10362 ft | 331 kts | 169° |
| 2026-04-26 16:45 | -25.54457 | -57.42930 | 10546 ft | 353 kts | 168° |
| 2026-04-26 16:45 | -25.56901 | -57.42268 | 10794 ft | 368 kts | 176° |
| 2026-04-26 16:46 | -25.59479 | -57.42050 | 11357 ft | 372 kts | 182° |
| 2026-04-26 16:46 | -25.62073 | -57.41968 | 12070 ft | 375 kts | 183° |
| 2026-04-26 16:46 | -25.64657 | -57.41911 | 12727 ft | 377 kts | 183° |
| 2026-04-26 16:46 | -25.67294 | -57.41847 | 13322 ft | 381 kts | 183° |
| 2026-04-26 16:47 | -25.69959 | -57.41769 | 13899 ft | 385 kts | 182° |
| 2026-04-26 16:47 | -25.72646 | -57.41678 | 14454 ft | 388 kts | 182° |
| 2026-04-26 16:47 | -25.75352 | -57.41578 | 15012 ft | 391 kts | 182° |
| 2026-04-26 16:47 | -25.78083 | -57.41472 | 15560 ft | 394 kts | 182° |
| 2026-04-26 16:48 | -25.80835 | -57.41363 | 16136 ft | 397 kts | 182° |
| 2026-04-26 16:48 | -25.83610 | -57.41252 | 16685 ft | 401 kts | 182° |
| 2026-04-26 16:48 | -25.86411 | -57.41139 | 17249 ft | 403 kts | 182° |
| 2026-04-26 16:48 | -25.89228 | -57.41026 | 17775 ft | 407 kts | 182° |
| 2026-04-26 16:49 | -25.92069 | -57.40912 | 18273 ft | 410 kts | 182° |
| 2026-04-26 16:49 | -25.94897 | -57.40799 | 18714 ft | 413 kts | 183° |
| 2026-04-26 16:49 | -25.97783 | -57.40683 | 19158 ft | 415 kts | 183° |
| 2026-04-26 16:49 | -26.00678 | -57.40567 | 19606 ft | 418 kts | 184° |
| 2026-04-26 16:50 | -26.03594 | -57.40450 | 20038 ft | 420 kts | 184° |
| 2026-04-26 16:50 | -26.06532 | -57.40332 | 20485 ft | 422 kts | 184° |
| 2026-04-26 16:50 | -26.09482 | -57.40086 | 20911 ft | 428 kts | 180° |
| 2026-04-26 16:50 | -26.12452 | -57.39692 | 21300 ft | 432 kts | 179° |
| 2026-04-26 16:51 | -26.15439 | -57.39239 | 21698 ft | 435 kts | 179° |
| 2026-04-26 16:51 | -26.18452 | -57.38769 | 22075 ft | 438 kts | 179° |
| 2026-04-26 16:51 | -26.21479 | -57.38303 | 22443 ft | 440 kts | 180° |
| 2026-04-26 16:51 | -26.24525 | -57.37844 | 22780 ft | 442 kts | 180° |
| 2026-04-26 16:52 | -26.27583 | -57.37393 | 23129 ft | 445 kts | 180° |
| 2026-04-26 16:52 | -26.29621 | -57.37097 | 23367 ft | 446 kts | 180° |
| 2026-04-26 16:52 | -26.33757 | -57.36499 | 23761 ft | 449 kts | 181° |
| 2026-04-26 16:52 | -26.36822 | -57.36058 | 24031 ft | 451 kts | 181° |
| 2026-04-26 16:53 | -26.39943 | -57.35608 | 24295 ft | 453 kts | 181° |
| 2026-04-26 16:53 | -26.43079 | -57.35156 | 24566 ft | 455 kts | 181° |
| 2026-04-26 16:53 | -26.46229 | -57.34701 | 24845 ft | 457 kts | 181° |
| 2026-04-26 16:53 | -26.49386 | -57.34245 | 25108 ft | 459 kts | 181° |
| 2026-04-26 16:54 | -26.52560 | -57.33787 | 25359 ft | 461 kts | 181° |
| 2026-04-26 16:54 | -26.55746 | -57.33326 | 25618 ft | 463 kts | 181° |
| 2026-04-26 16:54 | -26.58949 | -57.32862 | 25894 ft | 464 kts | 181° |
| 2026-04-26 16:54 | -26.62167 | -57.32395 | 26154 ft | 466 kts | 181° |
| 2026-04-26 16:55 | -26.65390 | -57.31928 | 26412 ft | 468 kts | 181° |
| 2026-04-26 16:55 | -26.68630 | -57.31458 | 26664 ft | 470 kts | 181° |
| 2026-04-26 16:55 | -26.71890 | -57.30984 | 26913 ft | 472 kts | 181° |
| 2026-04-26 16:55 | -26.74744 | -57.30570 | 27123 ft | 473 kts | 181° |
| 2026-04-26 16:56 | -26.81012 | -57.29668 | 27590 ft | 477 kts | 181° |
| 2026-04-26 16:56 | -26.84309 | -57.29199 | 27827 ft | 478 kts | 182° |
| 2026-04-26 16:56 | -26.87575 | -57.28734 | 28069 ft | 480 kts | 182° |
| 2026-04-26 16:57 | -26.90892 | -57.28261 | 28303 ft | 481 kts | 182° |
| 2026-04-26 16:57 | -26.94219 | -57.27785 | 28530 ft | 483 kts | 182° |
| 2026-04-26 16:57 | -27.00916 | -57.26826 | 28975 ft | 486 kts | 182° |
| 2026-04-26 16:58 | -27.04292 | -57.26341 | 29194 ft | 487 kts | 182° |
| 2026-04-26 16:58 | -27.06523 | -57.26021 | 29338 ft | 488 kts | 182° |
| 2026-04-26 16:58 | -27.14398 | -57.24889 | 29820 ft | 492 kts | 182° |
| 2026-04-26 16:59 | -27.17785 | -57.24401 | 30086 ft | 491 kts | 182° |
| 2026-04-26 16:59 | -27.24558 | -57.23421 | 30671 ft | 488 kts | 182° |
| 2026-04-26 17:00 | -27.31261 | -57.22455 | 31206 ft | 487 kts | 182° |
| 2026-04-26 17:00 | -27.37973 | -57.21487 | 31773 ft | 485 kts | 183° |
| 2026-04-26 17:00 | -27.41322 | -57.21003 | 32069 ft | 484 kts | 183° |
| 2026-04-26 17:01 | -27.44665 | -57.20520 | 32384 ft | 482 kts | 183° |
| 2026-04-26 17:01 | -27.47987 | -57.20037 | 32696 ft | 481 kts | 183° |
| 2026-04-26 17:01 | -27.51318 | -57.19548 | 32995 ft | 480 kts | 183° |
| 2026-04-26 17:01 | -27.54624 | -57.19060 | 33310 ft | 479 kts | 183° |
| 2026-04-26 17:02 | -27.57887 | -57.18577 | 33648 ft | 477 kts | 183° |
| 2026-04-26 17:02 | -27.61173 | -57.18090 | 33982 ft | 476 kts | 183° |
| 2026-04-26 17:02 | -27.64451 | -57.17606 | 34241 ft | 475 kts | 183° |
| 2026-04-26 17:02 | -27.67727 | -57.17122 | 34514 ft | 473 kts | 183° |
| 2026-04-26 17:03 | -27.70991 | -57.16640 | 34812 ft | 471 kts | 184° |
| 2026-04-26 17:03 | -27.74245 | -57.16159 | 35075 ft | 470 kts | 184° |
| 2026-04-26 17:03 | -27.77486 | -57.15680 | 35319 ft | 470 kts | 184° |
| 2026-04-26 17:03 | -27.80729 | -57.15201 | 35581 ft | 469 kts | 184° |
| 2026-04-26 17:04 | -27.83966 | -57.14722 | 35843 ft | 467 kts | 184° |
| 2026-04-26 17:04 | -27.87192 | -57.14244 | 36096 ft | 466 kts | 184° |
| 2026-04-26 17:04 | -27.90399 | -57.13769 | 36321 ft | 466 kts | 184° |
| 2026-04-26 17:04 | -27.93570 | -57.13300 | 36543 ft | 465 kts | 184° |
| 2026-04-26 17:05 | -27.96781 | -57.12824 | 36806 ft | 463 kts | 184° |
| 2026-04-26 17:05 | -27.99976 | -57.12349 | 37025 ft | 463 kts | 184° |
| 2026-04-26 17:05 | -28.03169 | -57.11876 | 37206 ft | 463 kts | 184° |
| 2026-04-26 17:05 | -28.06366 | -57.11401 | 37411 ft | 463 kts | 184° |
| 2026-04-26 17:06 | -28.09557 | -57.10926 | 37626 ft | 462 kts | 184° |
| 2026-04-26 17:06 | -28.12748 | -57.10451 | 37844 ft | 461 kts | 184° |
| 2026-04-26 17:06 | -28.19144 | -57.09502 | 37949 ft | 466 kts | 184° |
| 2026-04-26 17:07 | -28.25580 | -57.08547 | 37956 ft | 470 kts | 185° |
| 2026-04-26 17:07 | -28.32089 | -57.07573 | 37958 ft | 473 kts | 185° |
| 2026-04-26 17:08 | -28.38600 | -57.06597 | 37950 ft | 474 kts | 185° |
| 2026-04-26 17:08 | -28.45153 | -57.05613 | 37952 ft | 474 kts | 185° |
| 2026-04-26 17:09 | -28.50597 | -57.04797 | 37947 ft | 474 kts | 185° |
| 2026-04-26 17:09 | -28.58245 | -57.03649 | 37944 ft | 473 kts | 185° |
| 2026-04-26 17:10 | -28.64766 | -57.02667 | 37939 ft | 472 kts | 185° |
| 2026-04-26 17:10 | -28.71271 | -57.01685 | 37944 ft | 471 kts | 185° |
| 2026-04-26 17:11 | -28.77732 | -57.00708 | 37945 ft | 471 kts | 185° |
| 2026-04-26 17:11 | -28.84223 | -56.99726 | 37946 ft | 470 kts | 186° |
| 2026-04-26 17:12 | -28.93944 | -56.98253 | 37939 ft | 469 kts | 186° |
| 2026-04-26 17:13 | -29.03677 | -56.96775 | 37950 ft | 469 kts | 186° |
| 2026-04-26 17:14 | -29.13360 | -56.95301 | 37938 ft | 469 kts | 186° |
| 2026-04-26 17:14 | -29.23084 | -56.93800 | 37941 ft | 470 kts | 186° |
| 2026-04-26 17:15 | -29.32763 | -56.92301 | 37941 ft | 470 kts | 186° |
| 2026-04-26 17:16 | -29.39258 | -56.91295 | 37944 ft | 470 kts | 187° |
| 2026-04-26 17:16 | -29.45756 | -56.90288 | 37940 ft | 470 kts | 187° |
| 2026-04-26 17:17 | -29.52208 | -56.89286 | 37937 ft | 471 kts | 187° |
| 2026-04-26 17:17 | -29.58697 | -56.88265 | 37932 ft | 471 kts | 187° |
| 2026-04-26 17:18 | -29.65216 | -56.87221 | 37927 ft | 472 kts | 187° |
| 2026-04-26 17:18 | -29.71727 | -56.86177 | 37931 ft | 472 kts | 187° |
| 2026-04-26 17:19 | -29.81373 | -56.84631 | 37941 ft | 472 kts | 187° |
| 2026-04-26 17:19 | -29.87887 | -56.83587 | 37939 ft | 472 kts | 187° |
| 2026-04-26 17:20 | -29.92240 | -56.82888 | 37942 ft | 472 kts | 187° |
| 2026-04-26 17:20 | -30.00912 | -56.81493 | 37942 ft | 473 kts | 187° |
| 2026-04-26 17:21 | -30.07437 | -56.80443 | 37938 ft | 473 kts | 187° |
| 2026-04-26 17:21 | -30.13927 | -56.79406 | 37945 ft | 473 kts | 188° |
| 2026-04-26 17:22 | -30.20461 | -56.78399 | 37935 ft | 472 kts | 188° |
| 2026-04-26 17:22 | -30.26978 | -56.77399 | 37941 ft | 472 kts | 188° |
| 2026-04-26 17:23 | -30.33501 | -56.76392 | 37927 ft | 473 kts | 188° |
| 2026-04-26 17:23 | -30.40025 | -56.75380 | 37935 ft | 473 kts | 188° |
| 2026-04-26 17:24 | -30.46514 | -56.74373 | 37934 ft | 473 kts | 188° |
| 2026-04-26 17:24 | -30.53060 | -56.73355 | 37942 ft | 474 kts | 188° |
| 2026-04-26 17:25 | -30.58493 | -56.72509 | 37937 ft | 474 kts | 188° |
| 2026-04-26 17:25 | -30.66148 | -56.71315 | 37941 ft | 475 kts | 188° |
| 2026-04-26 17:26 | -30.71595 | -56.70465 | 37932 ft | 475 kts | 188° |
| 2026-04-26 17:26 | -30.78166 | -56.69408 | 37931 ft | 476 kts | 188° |
| 2026-04-26 17:27 | -30.84736 | -56.68332 | 37922 ft | 476 kts | 188° |
| 2026-04-26 17:27 | -30.90965 | -56.67323 | 37925 ft | 476 kts | 188° |
| 2026-04-26 17:28 | -30.97497 | -56.66292 | 37911 ft | 476 kts | 188° |
| 2026-04-26 17:28 | -31.04077 | -56.65256 | 37927 ft | 477 kts | 188° |
| 2026-04-26 17:29 | -31.09584 | -56.64385 | 37920 ft | 477 kts | 188° |
| 2026-04-26 17:29 | -31.17249 | -56.63167 | 37922 ft | 477 kts | 188° |
| 2026-04-26 17:30 | -31.23854 | -56.62117 | 37919 ft | 478 kts | 188° |
| 2026-04-26 17:30 | -31.30409 | -56.61072 | 37914 ft | 479 kts | 187° |
| 2026-04-26 17:31 | -31.37026 | -56.60016 | 37908 ft | 479 kts | 187° |
| 2026-04-26 17:31 | -31.43637 | -56.58960 | 37914 ft | 480 kts | 187° |
| 2026-04-26 17:32 | -31.50268 | -56.57903 | 38051 ft | 484 kts | 188° |
| 2026-04-26 17:32 | -31.57004 | -56.56831 | 37953 ft | 492 kts | 187° |
| 2026-04-26 17:33 | -31.63785 | -56.55737 | 37903 ft | 496 kts | 187° |
| 2026-04-26 17:34 | -31.74062 | -56.54078 | 37903 ft | 497 kts | 187° |
| 2026-04-26 17:34 | -31.80917 | -56.52984 | 37900 ft | 496 kts | 187° |
| 2026-04-26 17:35 | -31.87757 | -56.51895 | 37890 ft | 495 kts | 187° |
| 2026-04-26 17:35 | -31.94574 | -56.50807 | 37888 ft | 493 kts | 187° |
| 2026-04-26 17:36 | -32.01376 | -56.49719 | 37886 ft | 492 kts | 187° |
| 2026-04-26 17:36 | -32.08124 | -56.48638 | 37888 ft | 491 kts | 187° |
| 2026-04-26 17:37 | -32.14893 | -56.47553 | 37890 ft | 490 kts | 187° |
| 2026-04-26 17:37 | -32.21659 | -56.46451 | 37891 ft | 490 kts | 186° |
| 2026-04-26 17:38 | -32.31748 | -56.44792 | 37879 ft | 489 kts | 186° |
| 2026-04-26 17:38 | -32.38493 | -56.43683 | 37883 ft | 488 kts | 186° |
| 2026-04-26 17:39 | -32.45197 | -56.42580 | 37881 ft | 488 kts | 186° |
| 2026-04-26 17:39 | -32.51955 | -56.41474 | 37225 ft | 493 kts | 186° |
| 2026-04-26 17:40 | -32.55342 | -56.40912 | 36656 ft | 489 kts | 186° |
| 2026-04-26 17:40 | -32.57577 | -56.40540 | 36254 ft | 488 kts | 186° |
| 2026-04-26 17:40 | -32.62068 | -56.39793 | 35440 ft | 486 kts | 186° |
| 2026-04-26 17:40 | -32.65423 | -56.39239 | 34772 ft | 487 kts | 185° |
| 2026-04-26 17:41 | -32.68790 | -56.38685 | 34073 ft | 488 kts | 185° |
| 2026-04-26 17:41 | -32.72154 | -56.38130 | 33287 ft | 489 kts | 185° |
| 2026-04-26 17:41 | -32.75530 | -56.37572 | 32536 ft | 488 kts | 185° |
| 2026-04-26 17:41 | -32.78902 | -56.37011 | 31788 ft | 487 kts | 184° |
| 2026-04-26 17:42 | -32.82211 | -56.36457 | 31298 ft | 481 kts | 184° |
| 2026-04-26 17:42 | -32.85514 | -56.35903 | 30782 ft | 476 kts | 184° |
| 2026-04-26 17:42 | -32.88776 | -56.35359 | 30291 ft | 471 kts | 184° |
| 2026-04-26 17:42 | -32.92006 | -56.34824 | 29766 ft | 466 kts | 184° |
| 2026-04-26 17:43 | -32.95202 | -56.34294 | 29215 ft | 461 kts | 184° |
| 2026-04-26 17:43 | -32.98365 | -56.33766 | 28705 ft | 455 kts | 184° |
| 2026-04-26 17:43 | -33.01482 | -56.33248 | 28207 ft | 449 kts | 184° |
| 2026-04-26 17:43 | -33.04561 | -56.32737 | 27709 ft | 444 kts | 185° |
| 2026-04-26 17:44 | -33.07566 | -56.32240 | 27220 ft | 440 kts | 185° |
| 2026-04-26 17:44 | -33.10587 | -56.31742 | 26727 ft | 435 kts | 185° |
| 2026-04-26 17:44 | -33.13581 | -56.31249 | 26243 ft | 431 kts | 185° |
| 2026-04-26 17:44 | -33.16550 | -56.30760 | 25759 ft | 427 kts | 185° |
| 2026-04-26 17:45 | -33.19481 | -56.30277 | 25282 ft | 424 kts | 185° |
| 2026-04-26 17:45 | -33.22398 | -56.29796 | 24828 ft | 420 kts | 185° |
| 2026-04-26 17:45 | -33.25284 | -56.29319 | 24355 ft | 417 kts | 185° |
| 2026-04-26 17:45 | -33.28144 | -56.28846 | 23900 ft | 414 kts | 185° |
| 2026-04-26 17:46 | -33.30951 | -56.28382 | 23448 ft | 411 kts | 185° |
| 2026-04-26 17:46 | -33.33773 | -56.27915 | 22917 ft | 408 kts | 185° |
| 2026-04-26 17:46 | -33.36581 | -56.27449 | 22424 ft | 405 kts | 185° |
| 2026-04-26 17:46 | -33.39361 | -56.26987 | 21972 ft | 400 kts | 185° |
| 2026-04-26 17:47 | -33.42112 | -56.26528 | 21509 ft | 396 kts | 185° |
| 2026-04-26 17:47 | -33.43916 | -56.26228 | 21225 ft | 393 kts | 185° |
| 2026-04-26 17:47 | -33.47520 | -56.25629 | 20639 ft | 389 kts | 185° |
| 2026-04-26 17:47 | -33.50193 | -56.25185 | 20181 ft | 386 kts | 185° |
| 2026-04-26 17:48 | -33.52817 | -56.24749 | 19760 ft | 383 kts | 185° |
| 2026-04-26 17:48 | -33.55482 | -56.24306 | 19328 ft | 380 kts | 185° |
| 2026-04-26 17:48 | -33.58064 | -56.23877 | 18914 ft | 378 kts | 185° |
| 2026-04-26 17:48 | -33.60665 | -56.23444 | 18487 ft | 376 kts | 185° |
| 2026-04-26 17:49 | -33.63252 | -56.23013 | 18049 ft | 374 kts | 185° |
| 2026-04-26 17:49 | -33.65823 | -56.22585 | 17569 ft | 372 kts | 185° |
| 2026-04-26 17:49 | -33.68380 | -56.22158 | 17121 ft | 369 kts | 185° |
| 2026-04-26 17:49 | -33.70916 | -56.21733 | 16714 ft | 365 kts | 185° |
| 2026-04-26 17:50 | -33.73356 | -56.21326 | 16293 ft | 363 kts | 185° |
| 2026-04-26 17:50 | -33.75817 | -56.20915 | 15886 ft | 361 kts | 185° |
| 2026-04-26 17:50 | -33.78298 | -56.20499 | 15466 ft | 358 kts | 184° |
| 2026-04-26 17:50 | -33.80768 | -56.20083 | 15057 ft | 356 kts | 184° |
| 2026-04-26 17:51 | -33.83212 | -56.19667 | 14649 ft | 354 kts | 184° |
| 2026-04-26 17:51 | -33.85643 | -56.19251 | 14242 ft | 352 kts | 184° |
| 2026-04-26 17:51 | -33.88074 | -56.18835 | 13834 ft | 351 kts | 183° |
| 2026-04-26 17:51 | -33.90480 | -56.18424 | 13414 ft | 349 kts | 183° |
| 2026-04-26 17:52 | -33.92883 | -56.18013 | 12940 ft | 347 kts | 183° |
| 2026-04-26 17:52 | -33.95243 | -56.17608 | 12524 ft | 346 kts | 183° |
| 2026-04-26 17:52 | -33.97621 | -56.17201 | 12107 ft | 344 kts | 183° |
| 2026-04-26 17:52 | -33.99986 | -56.16796 | 11694 ft | 343 kts | 182° |
| 2026-04-26 17:53 | -34.02343 | -56.16393 | 11282 ft | 342 kts | 182° |
| 2026-04-26 17:53 | -34.04706 | -56.15989 | 10874 ft | 341 kts | 182° |
| 2026-04-26 17:53 | -34.07049 | -56.15586 | 10594 ft | 336 kts | 182° |
| 2026-04-26 17:54 | -34.11538 | -56.14806 | 10287 ft | 320 kts | 182° |
| 2026-04-26 17:54 | -34.13709 | -56.14430 | 10152 ft | 312 kts | 183° |
| 2026-04-26 17:54 | -34.15836 | -56.14063 | 10013 ft | 305 kts | 183° |
| 2026-04-26 17:54 | -34.17917 | -56.13705 | 9885 ft | 298 kts | 183° |
| 2026-04-26 17:55 | -34.18601 | -56.13588 | 9833 ft | 296 kts | 184° |
| 2026-04-26 17:55 | -34.20676 | -56.13235 | 9554 ft | 295 kts | 183° |
| 2026-04-26 17:55 | -34.22690 | -56.12894 | 9245 ft | 294 kts | 183° |
| 2026-04-26 17:55 | -34.24717 | -56.12548 | 8953 ft | 294 kts | 183° |
| 2026-04-26 17:56 | -34.26739 | -56.12201 | 8668 ft | 293 kts | 182° |
| 2026-04-26 17:56 | -34.30764 | -56.11507 | 8097 ft | 291 kts | 182° |
| 2026-04-26 17:57 | -34.34755 | -56.10509 | 7514 ft | 304 kts | 165° |
| 2026-04-26 17:57 | -34.36641 | -56.09404 | 7240 ft | 304 kts | 161° |
| 2026-04-26 17:57 | -34.38506 | -56.08240 | 6944 ft | 297 kts | 161° |
| 2026-04-26 17:57 | -34.40323 | -56.07102 | 6664 ft | 290 kts | 161° |
| 2026-04-26 17:58 | -34.45527 | -56.03904 | 5845 ft | 274 kts | 162° |
| 2026-04-26 17:59 | -34.48920 | -56.01853 | 5309 ft | 271 kts | 162° |
| 2026-04-26 17:59 | -34.50608 | -56.00835 | 5042 ft | 270 kts | 162° |
| 2026-04-26 17:59 | -34.52284 | -55.99824 | 4841 ft | 265 kts | 162° |
| 2026-04-26 17:59 | -34.53886 | -55.98851 | 4765 ft | 250 kts | 162° |
| 2026-04-26 18:00 | -34.55351 | -55.97962 | 4664 ft | 238 kts | 163° |
| 2026-04-26 18:00 | -34.56783 | -55.97094 | 4464 ft | 225 kts | 164° |
| 2026-04-26 18:00 | -34.58227 | -55.96231 | 3936 ft | 231 kts | 164° |
| 2026-04-26 18:00 | -34.59648 | -55.95374 | 3619 ft | 224 kts | 164° |
| 2026-04-26 18:01 | -34.61010 | -55.94549 | 3389 ft | 216 kts | 164° |
| 2026-04-26 18:01 | -34.62349 | -55.93740 | 3223 ft | 212 kts | 164° |
| 2026-04-26 18:01 | -34.63666 | -55.92945 | 3209 ft | 215 kts | 164° |
| 2026-04-26 18:01 | -34.65022 | -55.92107 | 3066 ft | 221 kts | 158° |
| 2026-04-26 18:02 | -34.66249 | -55.91053 | 3012 ft | 210 kts | 152° |
| 2026-04-26 18:02 | -34.66623 | -55.90706 | 3011 ft | 206 kts | 152° |
| 2026-04-26 18:02 | -34.68507 | -55.88971 | 3016 ft | 197 kts | 153° |
| 2026-04-26 18:02 | -34.69592 | -55.87985 | 3016 ft | 194 kts | 154° |
| 2026-04-26 18:03 | -34.70657 | -55.87023 | 3011 ft | 193 kts | 154° |
| 2026-04-26 18:03 | -34.71807 | -55.86328 | 2991 ft | 172 kts | 191° |
| 2026-04-26 18:03 | -34.72765 | -55.86723 | 3018 ft | 135 kts | 230° |
| 2026-04-26 18:03 | -34.73523 | -55.87378 | 3004 ft | 133 kts | 225° |
| 2026-04-26 18:04 | -34.74266 | -55.88025 | 2873 ft | 128 kts | 234° |
| 2026-04-26 18:04 | -34.74891 | -55.88782 | 2711 ft | 125 kts | 238° |
| 2026-04-26 18:04 | -34.75491 | -55.89550 | 2552 ft | 126 kts | 238° |
| 2026-04-26 18:05 | -34.76600 | -55.91173 | 2212 ft | 125 kts | 242° |
| 2026-04-26 18:05 | -34.77130 | -55.92026 | 2044 ft | 127 kts | 242° |
| 2026-04-26 18:05 | -34.77670 | -55.92913 | 1869 ft | 134 kts | 241° |
| 2026-04-26 18:05 | -34.78223 | -55.93823 | 1700 ft | 133 kts | 240° |
| 2026-04-26 18:06 | -34.78779 | -55.94739 | 1508 ft | 136 kts | 240° |
| 2026-04-26 18:06 | -34.79329 | -55.95649 | 1293 ft | 132 kts | 240° |
| 2026-04-26 18:06 | -34.79860 | -55.96520 | 1117 ft | 125 kts | 241° |
| 2026-04-26 18:06 | -34.80383 | -55.97390 | 969 ft | 134 kts | 239° |
| 2026-04-26 18:07 | -34.80948 | -55.98320 | 762 ft | 137 kts | 240° |
| 2026-04-26 18:07 | -34.81521 | -55.99266 | 576 ft | 139 kts | 241° |
| 2026-04-26 18:07 | -34.82074 | -56.00176 | 385 ft | 131 kts | 241° |
| 2026-04-26 18:07 | -34.82436 | -56.00771 | 270 ft | 127 kts | 239° |
| 2026-04-26 18:08 | -34.83119 | -56.01916 | 112 ft | 126 kts | 238° |
| 2026-04-26 18:08 | -34.83607 | -56.02760 | 86 ft | 106 kts | 249° |
| 2026-04-26 18:08 | -34.83956 | -56.03290 | 70 ft | 52 kts | 219° |
| 2026-04-26 18:08 | -34.84113 | -56.03546 | 69 ft | 21 kts | 230° |
| 2026-04-26 18:09 | -34.84188 | -56.03649 | 69 ft | 11 kts | 215° |
| 2026-04-26 18:09 | -34.84238 | -56.03610 | 71 ft | 11 kts | 81° |
| 2026-04-26 18:09 | -34.84209 | -56.03527 | 68 ft | 10 kts | 63° |
| 2026-04-26 18:09 | -34.84176 | -56.03449 | 67 ft | 10 kts | 61° |
| 2026-04-26 18:10 | -34.84140 | -56.03369 | 67 ft | 11 kts | 62° |
| 2026-04-26 18:10 | -34.84106 | -56.03291 | 75 ft | 10 kts | 62° |
| 2026-04-26 18:10 | -34.84069 | -56.03207 | 71 ft | 13 kts | 62° |
| 2026-04-26 18:10 | -34.84025 | -56.03101 | 73 ft | 15 kts | 68° |
| 2026-04-26 18:11 | -34.84010 | -56.02977 | 64 ft | 15 kts | 91° |
| 2026-04-26 18:11 | -34.84011 | -56.02826 | 61 ft | 21 kts | 85° |
| 2026-04-26 18:11 | -34.83955 | -56.02668 | 61 ft | 20 kts | 72° |
| 2026-04-26 18:11 | -34.83947 | -56.02538 | 61 ft | 11 kts | 89° |
| 2026-04-26 18:12 | -34.83947 | -56.02486 | 60 ft | 6 kts | 83° |
| 2026-04-26 18:12 | -34.83912 | -56.02460 | 60 ft | 6 kts | 1° |
| 2026-04-26 18:12 | -34.83892 | -56.02460 | 53 ft | 1 kts | 0° |
| 2026-04-26 18:12 | -34.83885 | -56.02460 | 55 ft | 1 kts | 0° |
| 2026-04-26 18:13 | -34.83878 | -56.02460 | 59 ft | 1 kts | 0° |
| 2026-04-26 18:13 | -34.83876 | -56.02460 | 58 ft | 0 kts | 1° |
| 2026-04-26 18:13 | -34.83874 | -56.02460 | 58 ft | 0 kts | 1° |